sensor_id;sensor_type;location;lat;lon;timestamp;P1;durP1;ratioP1;P2;durP2;ratioP2
46006;SDS011;31738;50.188;8.524;2023-03-31T00:01:24;11.68;;;2.92;;
46006;SDS011;31738;50.188;8.524;2023-03-31T00:03:50;11.52;;;3.40;;
46006;SDS011;31738;50.188;8.524;2023-03-31T00:06:16;15.27;;;3.90;;
46006;SDS011;31738;50.188;8.524;2023-03-31T00:08:45;13.05;;;2.35;;
46006;SDS011;31738;50.188;8.524;2023-03-31T00:11:11;13.70;;;3.72;;
46006;SDS011;31738;50.188;8.524;2023-03-31T00:13:37;15.10;;;3.03;;
46006;SDS011;31738;50.188;8.524;2023-03-31T00:16:07;9.85;;;2.92;;
46006;SDS011;31738;50.188;8.524;2023-03-31T00:18:34;14.88;;;3.05;;
46006;SDS011;31738;50.188;8.524;2023-03-31T00:21:13;13.05;;;3.05;;
46006;SDS011;31738;50.188;8.524;2023-03-31T00:23:49;9.60;;;2.42;;
46006;SDS011;31738;50.188;8.524;2023-03-31T00:26:18;12.50;;;2.15;;
46006;SDS011;31738;50.188;8.524;2023-03-31T00:28:43;6.90;;;1.88;;
46006;SDS011;31738;50.188;8.524;2023-03-31T00:31:09;8.73;;;1.95;;
46006;SDS011;31738;50.188;8.524;2023-03-31T00:33:35;11.50;;;1.98;;
46006;SDS011;31738;50.188;8.524;2023-03-31T00:36:00;11.57;;;2.00;;
46006;SDS011;31738;50.188;8.524;2023-03-31T00:38:30;7.40;;;1.95;;
46006;SDS011;31738;50.188;8.524;2023-03-31T00:40:57;12.95;;;2.38;;
46006;SDS011;31738;50.188;8.524;2023-03-31T00:43:31;10.38;;;2.58;;
46006;SDS011;31738;50.188;8.524;2023-03-31T00:46:03;14.77;;;2.35;;
46006;SDS011;31738;50.188;8.524;2023-03-31T00:48:46;13.02;;;2.45;;
46006;SDS011;31738;50.188;8.524;2023-03-31T00:51:15;13.40;;;2.30;;
46006;SDS011;31738;50.188;8.524;2023-03-31T00:53:42;13.82;;;2.60;;
46006;SDS011;31738;50.188;8.524;2023-03-31T00:56:10;11.13;;;2.30;;
46006;SDS011;31738;50.188;8.524;2023-03-31T00:58:38;10.25;;;2.35;;
46006;SDS011;31738;50.188;8.524;2023-03-31T01:01:12;11.07;;;2.50;;
46006;SDS011;31738;50.188;8.524;2023-03-31T01:03:41;11.07;;;2.70;;
46006;SDS011;31738;50.188;8.524;2023-03-31T01:06:11;15.80;;;3.00;;
46006;SDS011;31738;50.188;8.524;2023-03-31T01:08:43;15.55;;;2.75;;
46006;SDS011;31738;50.188;8.524;2023-03-31T01:11:09;15.52;;;2.90;;
46006;SDS011;31738;50.188;8.524;2023-03-31T01:13:37;12.40;;;3.00;;
46006;SDS011;31738;50.188;8.524;2023-03-31T01:16:07;16.17;;;3.33;;
46006;SDS011;31738;50.188;8.524;2023-03-31T01:18:33;21.17;;;3.95;;
46006;SDS011;31738;50.188;8.524;2023-03-31T01:26:27;14.20;;;3.10;;
46006;SDS011;31738;50.188;8.524;2023-03-31T01:40:57;12.43;;;3.53;;
46006;SDS011;31738;50.188;8.524;2023-03-31T01:49:16;15.27;;;3.50;;
46006;SDS011;31738;50.188;8.524;2023-03-31T01:54:31;13.43;;;4.05;;
46006;SDS011;31738;50.188;8.524;2023-03-31T01:56:59;22.95;;;5.15;;
46006;SDS011;31738;50.188;8.524;2023-03-31T01:59:34;15.70;;;5.40;;
46006;SDS011;31738;50.188;8.524;2023-03-31T02:02:08;38.28;;;6.32;;
46006;SDS011;31738;50.188;8.524;2023-03-31T02:04:47;21.55;;;6.65;;
46006;SDS011;31738;50.188;8.524;2023-03-31T02:07:18;21.30;;;7.07;;
46006;SDS011;31738;50.188;8.524;2023-03-31T02:09:49;24.20;;;7.50;;
46006;SDS011;31738;50.188;8.524;2023-03-31T02:12:20;19.00;;;7.93;;
46006;SDS011;31738;50.188;8.524;2023-03-31T02:14:51;25.60;;;7.70;;
46006;SDS011;31738;50.188;8.524;2023-03-31T02:17:20;32.25;;;8.93;;
46006;SDS011;31738;50.188;8.524;2023-03-31T02:19:56;22.30;;;7.70;;
46006;SDS011;31738;50.188;8.524;2023-03-31T02:22:24;20.38;;;8.25;;
46006;SDS011;31738;50.188;8.524;2023-03-31T02:25:05;19.83;;;7.97;;
46006;SDS011;31738;50.188;8.524;2023-03-31T02:27:35;41.53;;;8.50;;
46006;SDS011;31738;50.188;8.524;2023-03-31T02:30:07;20.48;;;8.25;;
46006;SDS011;31738;50.188;8.524;2023-03-31T02:32:41;23.75;;;7.70;;
46006;SDS011;31738;50.188;8.524;2023-03-31T02:35:13;20.63;;;7.97;;
46006;SDS011;31738;50.188;8.524;2023-03-31T02:37:41;24.48;;;8.20;;
46006;SDS011;31738;50.188;8.524;2023-03-31T02:40:11;22.05;;;7.55;;
46006;SDS011;31738;50.188;8.524;2023-03-31T02:42:52;18.48;;;8.43;;
46006;SDS011;31738;50.188;8.524;2023-03-31T02:48:05;26.75;;;8.88;;
46006;SDS011;31738;50.188;8.524;2023-03-31T02:50:37;27.45;;;9.10;;
46006;SDS011;31738;50.188;8.524;2023-03-31T02:58:56;26.80;;;8.55;;
46006;SDS011;31738;50.188;8.524;2023-03-31T03:01:37;18.13;;;8.68;;
46006;SDS011;31738;50.188;8.524;2023-03-31T03:04:17;35.67;;;10.53;;
46006;SDS011;31738;50.188;8.524;2023-03-31T03:06:57;26.80;;;11.02;;
46006;SDS011;31738;50.188;8.524;2023-03-31T03:09:42;28.95;;;11.38;;
46006;SDS011;31738;50.188;8.524;2023-03-31T03:12:25;31.70;;;12.55;;
46006;SDS011;31738;50.188;8.524;2023-03-31T03:15:07;28.83;;;12.57;;
46006;SDS011;31738;50.188;8.524;2023-03-31T03:17:40;26.13;;;11.90;;
46006;SDS011;31738;50.188;8.524;2023-03-31T03:20:09;31.40;;;12.05;;
46006;SDS011;31738;50.188;8.524;2023-03-31T03:22:36;30.40;;;12.70;;
46006;SDS011;31738;50.188;8.524;2023-03-31T03:25:03;30.42;;;11.80;;
46006;SDS011;31738;50.188;8.524;2023-03-31T03:27:29;30.70;;;12.23;;
46006;SDS011;31738;50.188;8.524;2023-03-31T03:29:55;22.17;;;9.85;;
46006;SDS011;31738;50.188;8.524;2023-03-31T03:32:20;22.42;;;9.10;;
46006;SDS011;31738;50.188;8.524;2023-03-31T03:34:46;23.05;;;9.00;;
46006;SDS011;31738;50.188;8.524;2023-03-31T03:37:11;23.95;;;9.05;;
46006;SDS011;31738;50.188;8.524;2023-03-31T03:39:37;30.13;;;9.80;;
46006;SDS011;31738;50.188;8.524;2023-03-31T03:42:02;21.42;;;9.35;;
46006;SDS011;31738;50.188;8.524;2023-03-31T03:44:28;23.60;;;10.05;;
46006;SDS011;31738;50.188;8.524;2023-03-31T03:46:53;25.48;;;11.45;;
46006;SDS011;31738;50.188;8.524;2023-03-31T03:49:19;27.65;;;11.77;;
46006;SDS011;31738;50.188;8.524;2023-03-31T03:51:45;37.30;;;13.20;;
46006;SDS011;31738;50.188;8.524;2023-03-31T03:54:10;29.25;;;13.13;;
46006;SDS011;31738;50.188;8.524;2023-03-31T03:56:36;36.97;;;12.95;;
46006;SDS011;31738;50.188;8.524;2023-03-31T03:59:01;31.15;;;13.18;;
46006;SDS011;31738;50.188;8.524;2023-03-31T04:01:27;29.75;;;12.77;;
46006;SDS011;31738;50.188;8.524;2023-03-31T04:03:52;34.83;;;13.13;;
46006;SDS011;31738;50.188;8.524;2023-03-31T04:06:18;26.80;;;11.38;;
46006;SDS011;31738;50.188;8.524;2023-03-31T04:08:44;27.35;;;11.70;;
46006;SDS011;31738;50.188;8.524;2023-03-31T04:11:13;30.40;;;12.50;;
46006;SDS011;31738;50.188;8.524;2023-03-31T04:13:44;32.05;;;11.63;;
46006;SDS011;31738;50.188;8.524;2023-03-31T04:16:10;27.05;;;11.35;;
46006;SDS011;31738;50.188;8.524;2023-03-31T04:18:36;36.65;;;12.32;;
46006;SDS011;31738;50.188;8.524;2023-03-31T04:21:07;32.45;;;12.20;;
46006;SDS011;31738;50.188;8.524;2023-03-31T04:23:36;38.38;;;12.23;;
46006;SDS011;31738;50.188;8.524;2023-03-31T04:26:07;25.85;;;11.90;;
46006;SDS011;31738;50.188;8.524;2023-03-31T04:28:34;33.63;;;12.05;;
46006;SDS011;31738;50.188;8.524;2023-03-31T04:31:01;29.83;;;11.93;;
46006;SDS011;31738;50.188;8.524;2023-03-31T04:33:27;24.17;;;10.95;;
46006;SDS011;31738;50.188;8.524;2023-03-31T04:35:52;29.95;;;11.48;;
46006;SDS011;31738;50.188;8.524;2023-03-31T04:38:19;25.05;;;10.60;;
46006;SDS011;31738;50.188;8.524;2023-03-31T04:40:49;26.58;;;10.45;;
46006;SDS011;31738;50.188;8.524;2023-03-31T04:43:16;28.85;;;10.45;;
46006;SDS011;31738;50.188;8.524;2023-03-31T04:45:43;23.20;;;9.93;;
46006;SDS011;31738;50.188;8.524;2023-03-31T04:48:08;23.83;;;10.25;;
46006;SDS011;31738;50.188;8.524;2023-03-31T04:50:34;27.23;;;10.63;;
46006;SDS011;31738;50.188;8.524;2023-03-31T04:53:00;22.40;;;9.80;;
46006;SDS011;31738;50.188;8.524;2023-03-31T04:55:27;21.52;;;8.80;;
46006;SDS011;31738;50.188;8.524;2023-03-31T04:57:53;23.17;;;8.70;;
46006;SDS011;31738;50.188;8.524;2023-03-31T05:00:18;21.30;;;8.18;;
46006;SDS011;31738;50.188;8.524;2023-03-31T05:02:44;20.30;;;8.02;;
46006;SDS011;31738;50.188;8.524;2023-03-31T05:05:10;18.90;;;7.80;;
46006;SDS011;31738;50.188;8.524;2023-03-31T05:07:36;15.15;;;6.18;;
46006;SDS011;31738;50.188;8.524;2023-03-31T05:10:02;24.08;;;6.22;;
46006;SDS011;31738;50.188;8.524;2023-03-31T05:12:27;17.38;;;5.40;;
46006;SDS011;31738;50.188;8.524;2023-03-31T05:14:53;20.90;;;6.60;;
46006;SDS011;31738;50.188;8.524;2023-03-31T05:17:18;16.08;;;5.82;;
46006;SDS011;31738;50.188;8.524;2023-03-31T05:19:44;18.52;;;5.10;;
46006;SDS011;31738;50.188;8.524;2023-03-31T05:22:09;15.90;;;4.90;;
46006;SDS011;31738;50.188;8.524;2023-03-31T05:24:35;16.58;;;3.75;;
46006;SDS011;31738;50.188;8.524;2023-03-31T05:27:00;15.43;;;3.90;;
46006;SDS011;31738;50.188;8.524;2023-03-31T05:29:26;16.58;;;3.60;;
46006;SDS011;31738;50.188;8.524;2023-03-31T05:31:51;16.08;;;3.72;;
46006;SDS011;31738;50.188;8.524;2023-03-31T05:34:18;17.92;;;3.67;;
46006;SDS011;31738;50.188;8.524;2023-03-31T05:36:44;18.02;;;3.67;;
46006;SDS011;31738;50.188;8.524;2023-03-31T05:39:12;16.10;;;3.25;;
46006;SDS011;31738;50.188;8.524;2023-03-31T05:41:38;14.57;;;3.75;;
46006;SDS011;31738;50.188;8.524;2023-03-31T05:44:03;15.80;;;3.70;;
46006;SDS011;31738;50.188;8.524;2023-03-31T05:46:29;14.77;;;3.53;;
46006;SDS011;31738;50.188;8.524;2023-03-31T05:48:55;15.80;;;3.47;;
46006;SDS011;31738;50.188;8.524;2023-03-31T05:51:21;15.88;;;3.15;;
46006;SDS011;31738;50.188;8.524;2023-03-31T05:53:48;13.35;;;3.28;;
46006;SDS011;31738;50.188;8.524;2023-03-31T05:56:13;13.77;;;2.78;;
46006;SDS011;31738;50.188;8.524;2023-03-31T05:58:39;17.13;;;3.53;;
46006;SDS011;31738;50.188;8.524;2023-03-31T06:01:06;14.25;;;2.70;;
46006;SDS011;31738;50.188;8.524;2023-03-31T06:03:33;12.05;;;2.90;;
46006;SDS011;31738;50.188;8.524;2023-03-31T06:06:00;16.10;;;2.60;;
46006;SDS011;31738;50.188;8.524;2023-03-31T06:08:27;16.55;;;3.22;;
46006;SDS011;31738;50.188;8.524;2023-03-31T06:10:53;19.90;;;3.28;;
46006;SDS011;31738;50.188;8.524;2023-03-31T06:13:19;16.20;;;3.22;;
46006;SDS011;31738;50.188;8.524;2023-03-31T06:15:52;13.95;;;3.22;;
46006;SDS011;31738;50.188;8.524;2023-03-31T06:18:18;14.52;;;3.38;;
46006;SDS011;31738;50.188;8.524;2023-03-31T06:20:43;15.80;;;3.28;;
46006;SDS011;31738;50.188;8.524;2023-03-31T06:23:09;9.68;;;2.75;;
46006;SDS011;31738;50.188;8.524;2023-03-31T06:25:36;22.15;;;3.13;;
46006;SDS011;31738;50.188;8.524;2023-03-31T06:28:02;13.18;;;3.03;;
46006;SDS011;31738;50.188;8.524;2023-03-31T06:30:28;14.15;;;3.55;;
46006;SDS011;31738;50.188;8.524;2023-03-31T06:32:53;15.15;;;3.40;;
46006;SDS011;31738;50.188;8.524;2023-03-31T06:35:19;14.80;;;4.57;;
46006;SDS011;31738;50.188;8.524;2023-03-31T06:37:44;19.45;;;5.00;;
46006;SDS011;31738;50.188;8.524;2023-03-31T06:40:10;19.75;;;5.95;;
46006;SDS011;31738;50.188;8.524;2023-03-31T06:42:35;22.63;;;6.32;;
46006;SDS011;31738;50.188;8.524;2023-03-31T06:45:01;22.77;;;9.25;;
46006;SDS011;31738;50.188;8.524;2023-03-31T06:47:26;24.50;;;8.77;;
46006;SDS011;31738;50.188;8.524;2023-03-31T06:49:52;32.15;;;11.52;;
46006;SDS011;31738;50.188;8.524;2023-03-31T06:52:17;29.00;;;11.75;;
46006;SDS011;31738;50.188;8.524;2023-03-31T06:54:43;26.23;;;10.75;;
46006;SDS011;31738;50.188;8.524;2023-03-31T06:57:08;28.25;;;12.32;;
46006;SDS011;31738;50.188;8.524;2023-03-31T06:59:33;26.65;;;13.27;;
46006;SDS011;31738;50.188;8.524;2023-03-31T07:01:59;42.40;;;15.13;;
46006;SDS011;31738;50.188;8.524;2023-03-31T07:04:24;28.27;;;11.93;;
46006;SDS011;31738;50.188;8.524;2023-03-31T07:06:50;35.13;;;13.52;;
46006;SDS011;31738;50.188;8.524;2023-03-31T07:09:15;33.55;;;11.13;;
46006;SDS011;31738;50.188;8.524;2023-03-31T07:11:42;26.65;;;11.48;;
46006;SDS011;31738;50.188;8.524;2023-03-31T07:14:08;26.35;;;10.43;;
46006;SDS011;31738;50.188;8.524;2023-03-31T07:16:34;23.60;;;10.23;;
46006;SDS011;31738;50.188;8.524;2023-03-31T07:19:00;26.23;;;8.73;;
46006;SDS011;31738;50.188;8.524;2023-03-31T07:21:28;32.80;;;8.90;;
46006;SDS011;31738;50.188;8.524;2023-03-31T07:23:53;19.70;;;8.10;;
46006;SDS011;31738;50.188;8.524;2023-03-31T07:26:19;28.23;;;8.82;;
46006;SDS011;31738;50.188;8.524;2023-03-31T07:28:44;19.00;;;8.50;;
46006;SDS011;31738;50.188;8.524;2023-03-31T07:31:11;22.77;;;9.93;;
46006;SDS011;31738;50.188;8.524;2023-03-31T07:33:37;16.58;;;8.20;;
46006;SDS011;31738;50.188;8.524;2023-03-31T07:36:04;22.38;;;9.00;;
46006;SDS011;31738;50.188;8.524;2023-03-31T07:38:30;19.17;;;9.30;;
46006;SDS011;31738;50.188;8.524;2023-03-31T07:40:58;17.42;;;7.63;;
46006;SDS011;31738;50.188;8.524;2023-03-31T07:43:24;15.23;;;7.43;;
46006;SDS011;31738;50.188;8.524;2023-03-31T07:45:49;12.50;;;6.75;;
46006;SDS011;31738;50.188;8.524;2023-03-31T07:48:15;14.13;;;6.72;;
46006;SDS011;31738;50.188;8.524;2023-03-31T07:50:40;13.25;;;6.20;;
46006;SDS011;31738;50.188;8.524;2023-03-31T07:53:13;12.05;;;7.53;;
46006;SDS011;31738;50.188;8.524;2023-03-31T07:55:39;16.67;;;7.30;;
46006;SDS011;31738;50.188;8.524;2023-03-31T07:58:04;11.85;;;7.28;;
46006;SDS011;31738;50.188;8.524;2023-03-31T08:00:30;10.73;;;6.97;;
46006;SDS011;31738;50.188;8.524;2023-03-31T08:02:56;14.90;;;7.72;;
46006;SDS011;31738;50.188;8.524;2023-03-31T08:05:21;14.55;;;7.90;;
46006;SDS011;31738;50.188;8.524;2023-03-31T08:07:48;13.18;;;7.13;;
46006;SDS011;31738;50.188;8.524;2023-03-31T08:10:16;11.18;;;6.97;;
46006;SDS011;31738;50.188;8.524;2023-03-31T08:12:46;10.30;;;6.40;;
46006;SDS011;31738;50.188;8.524;2023-03-31T08:15:12;12.98;;;6.70;;
46006;SDS011;31738;50.188;8.524;2023-03-31T08:17:37;8.98;;;4.57;;
46006;SDS011;31738;50.188;8.524;2023-03-31T08:20:03;10.90;;;5.32;;
46006;SDS011;31738;50.188;8.524;2023-03-31T08:22:34;10.55;;;5.70;;
46006;SDS011;31738;50.188;8.524;2023-03-31T08:25:01;9.25;;;5.03;;
46006;SDS011;31738;50.188;8.524;2023-03-31T08:27:31;10.85;;;5.63;;
46006;SDS011;31738;50.188;8.524;2023-03-31T08:29:57;9.90;;;5.80;;
46006;SDS011;31738;50.188;8.524;2023-03-31T08:32:27;10.13;;;4.68;;
46006;SDS011;31738;50.188;8.524;2023-03-31T08:34:52;11.07;;;4.63;;
46006;SDS011;31738;50.188;8.524;2023-03-31T08:37:18;6.38;;;4.10;;
46006;SDS011;31738;50.188;8.524;2023-03-31T08:39:43;6.68;;;3.80;;
46006;SDS011;31738;50.188;8.524;2023-03-31T08:44:39;8.93;;;3.58;;
46006;SDS011;31738;50.188;8.524;2023-03-31T08:47:17;6.28;;;3.33;;
46006;SDS011;31738;50.188;8.524;2023-03-31T08:49:53;9.00;;;3.00;;
46006;SDS011;31738;50.188;8.524;2023-03-31T08:52:22;4.72;;;2.83;;
46006;SDS011;31738;50.188;8.524;2023-03-31T08:55:00;9.10;;;2.95;;
46006;SDS011;31738;50.188;8.524;2023-03-31T08:57:34;7.80;;;2.80;;
46006;SDS011;31738;50.188;8.524;2023-03-31T09:00:17;5.88;;;3.22;;
46006;SDS011;31738;50.188;8.524;2023-03-31T09:02:54;4.50;;;2.70;;
46006;SDS011;31738;50.188;8.524;2023-03-31T09:08:18;5.25;;;2.40;;
46006;SDS011;31738;50.188;8.524;2023-03-31T09:18:54;6.07;;;2.03;;
46006;SDS011;31738;50.188;8.524;2023-03-31T09:21:30;4.68;;;2.25;;
46006;SDS011;31738;50.188;8.524;2023-03-31T09:24:06;6.03;;;2.30;;
46006;SDS011;31738;50.188;8.524;2023-03-31T09:26:39;7.03;;;2.80;;
46006;SDS011;31738;50.188;8.524;2023-03-31T09:29:16;5.40;;;2.85;;
46006;SDS011;31738;50.188;8.524;2023-03-31T09:31:43;7.80;;;2.90;;
46006;SDS011;31738;50.188;8.524;2023-03-31T09:34:23;8.10;;;2.63;;
46006;SDS011;31738;50.188;8.524;2023-03-31T09:36:51;9.55;;;2.90;;
46006;SDS011;31738;50.188;8.524;2023-03-31T09:39:16;6.47;;;3.03;;
46006;SDS011;31738;50.188;8.524;2023-03-31T09:41:46;7.53;;;2.88;;
46006;SDS011;31738;50.188;8.524;2023-03-31T09:44:27;10.73;;;3.13;;
46006;SDS011;31738;50.188;8.524;2023-03-31T09:47:04;8.65;;;2.95;;
46006;SDS011;31738;50.188;8.524;2023-03-31T09:49:34;12.43;;;3.25;;
46006;SDS011;31738;50.188;8.524;2023-03-31T09:52:25;11.52;;;2.90;;
46006;SDS011;31738;50.188;8.524;2023-03-31T09:54:54;7.63;;;2.70;;
46006;SDS011;31738;50.188;8.524;2023-03-31T09:57:26;14.20;;;3.20;;
46006;SDS011;31738;50.188;8.524;2023-03-31T10:00:31;12.05;;;3.05;;
46006;SDS011;31738;50.188;8.524;2023-03-31T10:02:51;10.60;;;3.53;;
46006;SDS011;31738;50.188;8.524;2023-03-31T10:05:37;10.07;;;3.33;;
46006;SDS011;31738;50.188;8.524;2023-03-31T10:10:45;8.93;;;3.20;;
46006;SDS011;31738;50.188;8.524;2023-03-31T10:13:15;11.10;;;3.28;;
46006;SDS011;31738;50.188;8.524;2023-03-31T10:15:43;13.93;;;3.60;;
46006;SDS011;31738;50.188;8.524;2023-03-31T10:18:13;13.50;;;3.67;;
46006;SDS011;31738;50.188;8.524;2023-03-31T10:20:47;10.80;;;3.60;;
46006;SDS011;31738;50.188;8.524;2023-03-31T10:25:46;13.93;;;3.67;;
46006;SDS011;31738;50.188;8.524;2023-03-31T10:28:14;12.25;;;3.50;;
46006;SDS011;31738;50.188;8.524;2023-03-31T10:30:46;20.23;;;4.82;;
46006;SDS011;31738;50.188;8.524;2023-03-31T10:33:15;14.95;;;3.97;;
46006;SDS011;31738;50.188;8.524;2023-03-31T10:35:43;9.95;;;2.72;;
46006;SDS011;31738;50.188;8.524;2023-03-31T10:38:14;12.40;;;2.40;;
46006;SDS011;31738;50.188;8.524;2023-03-31T10:40:53;8.57;;;1.80;;
46006;SDS011;31738;50.188;8.524;2023-03-31T10:43:25;11.23;;;1.90;;
46006;SDS011;31738;50.188;8.524;2023-03-31T10:45:57;9.13;;;1.90;;
46006;SDS011;31738;50.188;8.524;2023-03-31T10:48:28;5.50;;;1.90;;
46006;SDS011;31738;50.188;8.524;2023-03-31T10:50:54;6.18;;;1.80;;
46006;SDS011;31738;50.188;8.524;2023-03-31T10:53:23;9.32;;;1.77;;
46006;SDS011;31738;50.188;8.524;2023-03-31T10:55:52;5.75;;;1.50;;
46006;SDS011;31738;50.188;8.524;2023-03-31T10:58:30;5.60;;;1.58;;
46006;SDS011;31738;50.188;8.524;2023-03-31T11:01:23;6.63;;;1.83;;
46006;SDS011;31738;50.188;8.524;2023-03-31T11:04:38;4.85;;;1.58;;
46006;SDS011;31738;50.188;8.524;2023-03-31T11:10:14;6.93;;;1.70;;
46006;SDS011;31738;50.188;8.524;2023-03-31T11:13:07;7.50;;;1.98;;
46006;SDS011;31738;50.188;8.524;2023-03-31T11:15:43;10.95;;;1.73;;
46006;SDS011;31738;50.188;8.524;2023-03-31T11:19:23;12.75;;;2.60;;
46006;SDS011;31738;50.188;8.524;2023-03-31T11:21:26;8.27;;;2.05;;
46006;SDS011;31738;50.188;8.524;2023-03-31T11:24:12;7.57;;;1.88;;
46006;SDS011;31738;50.188;8.524;2023-03-31T11:26:49;12.20;;;2.13;;
46006;SDS011;31738;50.188;8.524;2023-03-31T11:29:29;14.07;;;2.17;;
46006;SDS011;31738;50.188;8.524;2023-03-31T11:32:15;12.40;;;2.58;;
46006;SDS011;31738;50.188;8.524;2023-03-31T11:35:02;17.48;;;2.20;;
46006;SDS011;31738;50.188;8.524;2023-03-31T11:41:06;13.95;;;2.78;;
46006;SDS011;31738;50.188;8.524;2023-03-31T11:46:16;10.68;;;2.17;;
46006;SDS011;31738;50.188;8.524;2023-03-31T11:48:50;13.98;;;2.22;;
46006;SDS011;31738;50.188;8.524;2023-03-31T11:51:26;17.10;;;2.45;;
46006;SDS011;31738;50.188;8.524;2023-03-31T11:53:55;12.38;;;2.05;;
46006;SDS011;31738;50.188;8.524;2023-03-31T11:56:23;10.93;;;2.20;;
46006;SDS011;31738;50.188;8.524;2023-03-31T11:58:56;15.23;;;2.45;;
46006;SDS011;31738;50.188;8.524;2023-03-31T12:01:28;15.43;;;2.47;;
46006;SDS011;31738;50.188;8.524;2023-03-31T12:04:23;12.52;;;2.05;;
46006;SDS011;31738;50.188;8.524;2023-03-31T12:06:57;13.45;;;2.15;;
46006;SDS011;31738;50.188;8.524;2023-03-31T12:09:42;11.85;;;2.30;;
46006;SDS011;31738;50.188;8.524;2023-03-31T12:12:16;12.40;;;2.30;;
46006;SDS011;31738;50.188;8.524;2023-03-31T12:17:46;14.00;;;1.98;;
46006;SDS011;31738;50.188;8.524;2023-03-31T12:23:02;14.60;;;2.33;;
46006;SDS011;31738;50.188;8.524;2023-03-31T12:25:35;13.65;;;2.55;;
46006;SDS011;31738;50.188;8.524;2023-03-31T12:28:28;10.57;;;1.85;;
46006;SDS011;31738;50.188;8.524;2023-03-31T12:30:57;14.05;;;2.35;;
46006;SDS011;31738;50.188;8.524;2023-03-31T12:33:33;11.02;;;2.13;;
46006;SDS011;31738;50.188;8.524;2023-03-31T12:44:50;10.70;;;1.70;;
46006;SDS011;31738;50.188;8.524;2023-03-31T12:55:56;11.20;;;1.95;;
46006;SDS011;31738;50.188;8.524;2023-03-31T13:06:00;9.07;;;1.30;;
46006;SDS011;31738;50.188;8.524;2023-03-31T13:11:16;9.57;;;1.67;;
46006;SDS011;31738;50.188;8.524;2023-03-31T13:13:52;10.90;;;2.28;;
46006;SDS011;31738;50.188;8.524;2023-03-31T13:16:20;7.55;;;1.25;;
46006;SDS011;31738;50.188;8.524;2023-03-31T13:18:49;9.32;;;1.80;;
46006;SDS011;31738;50.188;8.524;2023-03-31T13:21:16;8.60;;;1.27;;
46006;SDS011;31738;50.188;8.524;2023-03-31T13:23:45;7.38;;;1.33;;
46006;SDS011;31738;50.188;8.524;2023-03-31T13:37:21;8.23;;;1.35;;
46006;SDS011;31738;50.188;8.524;2023-03-31T13:45:59;10.25;;;1.65;;
46006;SDS011;31738;50.188;8.524;2023-03-31T13:52:09;8.38;;;1.70;;
46006;SDS011;31738;50.188;8.524;2023-03-31T14:00:18;7.00;;;1.60;;
46006;SDS011;31738;50.188;8.524;2023-03-31T14:07:58;9.07;;;1.27;;
46006;SDS011;31738;50.188;8.524;2023-03-31T14:10:32;7.32;;;1.13;;
46006;SDS011;31738;50.188;8.524;2023-03-31T14:15:32;6.20;;;1.17;;
46006;SDS011;31738;50.188;8.524;2023-03-31T14:18:01;8.07;;;1.33;;
46006;SDS011;31738;50.188;8.524;2023-03-31T14:20:34;5.18;;;0.95;;
46006;SDS011;31738;50.188;8.524;2023-03-31T14:25:53;3.55;;;0.82;;
46006;SDS011;31738;50.188;8.524;2023-03-31T14:28:42;4.85;;;0.90;;
46006;SDS011;31738;50.188;8.524;2023-03-31T14:31:29;3.83;;;0.80;;
46006;SDS011;31738;50.188;8.524;2023-03-31T14:34:15;5.00;;;0.90;;
46006;SDS011;31738;50.188;8.524;2023-03-31T14:37:08;4.13;;;0.80;;
46006;SDS011;31738;50.188;8.524;2023-03-31T14:39:37;8.48;;;1.20;;
46006;SDS011;31738;50.188;8.524;2023-03-31T14:42:15;5.88;;;1.45;;
46006;SDS011;31738;50.188;8.524;2023-03-31T14:44:42;3.97;;;1.00;;
46006;SDS011;31738;50.188;8.524;2023-03-31T14:47:12;5.80;;;1.50;;
46006;SDS011;31738;50.188;8.524;2023-03-31T14:49:45;4.93;;;1.30;;
46006;SDS011;31738;50.188;8.524;2023-03-31T14:52:13;4.25;;;0.93;;
46006;SDS011;31738;50.188;8.524;2023-03-31T14:54:42;8.73;;;1.45;;
46006;SDS011;31738;50.188;8.524;2023-03-31T14:57:10;5.50;;;1.15;;
46006;SDS011;31738;50.188;8.524;2023-03-31T14:59:41;5.15;;;1.30;;
46006;SDS011;31738;50.188;8.524;2023-03-31T15:02:09;3.80;;;1.08;;
46006;SDS011;31738;50.188;8.524;2023-03-31T15:04:51;7.22;;;0.98;;
46006;SDS011;31738;50.188;8.524;2023-03-31T15:07:17;8.27;;;1.58;;
46006;SDS011;31738;50.188;8.524;2023-03-31T15:09:43;6.80;;;1.27;;
46006;SDS011;31738;50.188;8.524;2023-03-31T15:12:14;9.20;;;1.40;;
46006;SDS011;31738;50.188;8.524;2023-03-31T15:14:47;16.73;;;1.83;;
46006;SDS011;31738;50.188;8.524;2023-03-31T15:17:16;13.25;;;1.73;;
46006;SDS011;31738;50.188;8.524;2023-03-31T15:19:43;9.38;;;1.42;;
46006;SDS011;31738;50.188;8.524;2023-03-31T15:22:15;7.90;;;1.20;;
46006;SDS011;31738;50.188;8.524;2023-03-31T15:24:44;9.20;;;1.42;;
46006;SDS011;31738;50.188;8.524;2023-03-31T15:29:49;6.65;;;1.00;;
46006;SDS011;31738;50.188;8.524;2023-03-31T15:35:04;4.88;;;0.80;;
46006;SDS011;31738;50.188;8.524;2023-03-31T15:37:40;6.93;;;1.20;;
46006;SDS011;31738;50.188;8.524;2023-03-31T15:40:16;4.68;;;0.85;;
46006;SDS011;31738;50.188;8.524;2023-03-31T15:42:57;6.93;;;1.10;;
46006;SDS011;31738;50.188;8.524;2023-03-31T15:45:51;4.90;;;0.82;;
46006;SDS011;31738;50.188;8.524;2023-03-31T15:48:34;5.07;;;0.82;;
46006;SDS011;31738;50.188;8.524;2023-03-31T15:51:01;3.25;;;0.70;;
46006;SDS011;31738;50.188;8.524;2023-03-31T15:53:52;3.45;;;0.70;;
46006;SDS011;31738;50.188;8.524;2023-03-31T15:58:59;4.53;;;1.00;;
46006;SDS011;31738;50.188;8.524;2023-03-31T16:01:31;2.88;;;0.70;;
46006;SDS011;31738;50.188;8.524;2023-03-31T16:03:59;6.20;;;0.80;;
46006;SDS011;31738;50.188;8.524;2023-03-31T16:06:46;7.13;;;1.00;;
46006;SDS011;31738;50.188;8.524;2023-03-31T16:09:49;3.63;;;0.80;;
46006;SDS011;31738;50.188;8.524;2023-03-31T16:12:33;3.67;;;0.88;;
46006;SDS011;31738;50.188;8.524;2023-03-31T16:15:09;3.83;;;1.00;;
46006;SDS011;31738;50.188;8.524;2023-03-31T16:17:45;8.20;;;1.25;;
46006;SDS011;31738;50.188;8.524;2023-03-31T16:20:21;6.30;;;1.20;;
46006;SDS011;31738;50.188;8.524;2023-03-31T16:22:51;5.25;;;0.98;;
46006;SDS011;31738;50.188;8.524;2023-03-31T16:25:22;8.27;;;1.17;;
46006;SDS011;31738;50.188;8.524;2023-03-31T16:27:50;9.10;;;1.30;;
46006;SDS011;31738;50.188;8.524;2023-03-31T16:30:20;4.68;;;1.40;;
46006;SDS011;31738;50.188;8.524;2023-03-31T16:32:59;6.85;;;1.88;;
46006;SDS011;31738;50.188;8.524;2023-03-31T16:35:28;9.27;;;1.48;;
46006;SDS011;31738;50.188;8.524;2023-03-31T16:37:55;7.18;;;1.15;;
46006;SDS011;31738;50.188;8.524;2023-03-31T16:40:21;8.50;;;1.67;;
46006;SDS011;31738;50.188;8.524;2023-03-31T16:42:46;8.50;;;1.10;;
46006;SDS011;31738;50.188;8.524;2023-03-31T16:45:13;9.10;;;1.48;;
46006;SDS011;31738;50.188;8.524;2023-03-31T16:47:38;7.55;;;1.63;;
46006;SDS011;31738;50.188;8.524;2023-03-31T16:50:04;6.97;;;1.85;;
46006;SDS011;31738;50.188;8.524;2023-03-31T16:52:31;7.93;;;1.70;;
46006;SDS011;31738;50.188;8.524;2023-03-31T16:54:57;12.20;;;3.38;;
46006;SDS011;31738;50.188;8.524;2023-03-31T16:57:22;11.57;;;2.90;;
46006;SDS011;31738;50.188;8.524;2023-03-31T16:59:47;10.63;;;2.55;;
46006;SDS011;31738;50.188;8.524;2023-03-31T17:02:13;8.20;;;2.95;;
46006;SDS011;31738;50.188;8.524;2023-03-31T17:04:39;8.48;;;2.75;;
46006;SDS011;31738;50.188;8.524;2023-03-31T17:07:04;12.13;;;4.32;;
46006;SDS011;31738;50.188;8.524;2023-03-31T17:09:30;9.88;;;3.70;;
46006;SDS011;31738;50.188;8.524;2023-03-31T17:11:55;8.10;;;2.38;;
46006;SDS011;31738;50.188;8.524;2023-03-31T17:14:21;6.35;;;2.13;;
46006;SDS011;31738;50.188;8.524;2023-03-31T17:16:47;8.23;;;1.90;;
46006;SDS011;31738;50.188;8.524;2023-03-31T17:19:14;7.35;;;2.25;;